sensor_id;sensor_type;location;lat;lon;timestamp;temperature;humidity
21393;DHT22;10857;52.228;21.026;2024-03-08T00:00:13;3.00;53.90
21393;DHT22;10857;52.228;21.026;2024-03-08T00:02:44;3.00;50.90
21393;DHT22;10857;52.228;21.026;2024-03-08T00:05:12;3.00;54.10
21393;DHT22;10857;52.228;21.026;2024-03-08T00:07:40;3.00;57.50
21393;DHT22;10857;52.228;21.026;2024-03-08T00:10:10;3.00;53.60
21393;DHT22;10857;52.228;21.026;2024-03-08T00:12:44;3.10;56.90
21393;DHT22;10857;52.228;21.026;2024-03-08T00:15:14;3.20;59.70
21393;DHT22;10857;52.228;21.026;2024-03-08T00:17:44;3.40;89.90
21393;DHT22;10857;52.228;21.026;2024-03-08T00:20:11;3.40;59.70
21393;DHT22;10857;52.228;21.026;2024-03-08T00:22:41;3.40;57.50
21393;DHT22;10857;52.228;21.026;2024-03-08T00:25:09;3.20;57.00
21393;DHT22;10857;52.228;21.026;2024-03-08T00:27:37;3.10;96.70
21393;DHT22;10857;52.228;21.026;2024-03-08T00:30:08;3.10;99.90
21393;DHT22;10857;52.228;21.026;2024-03-08T00:32:36;3.20;99.90
21393;DHT22;10857;52.228;21.026;2024-03-08T00:35:04;3.30;99.90
21393;DHT22;10857;52.228;21.026;2024-03-08T00:37:34;3.40;99.90
21393;DHT22;10857;52.228;21.026;2024-03-08T00:40:02;3.50;96.60
21393;DHT22;10857;52.228;21.026;2024-03-08T00:42:29;3.50;59.90
21393;DHT22;10857;52.228;21.026;2024-03-08T00:44:56;3.50;58.00
21393;DHT22;10857;52.228;21.026;2024-03-08T00:47:25;3.60;55.30
21393;DHT22;10857;52.228;21.026;2024-03-08T00:49:52;3.60;51.70
21393;DHT22;10857;52.228;21.026;2024-03-08T00:52:20;3.50;54.80
21393;DHT22;10857;52.228;21.026;2024-03-08T00:54:47;3.30;52.20
21393;DHT22;10857;52.228;21.026;2024-03-08T00:57:14;3.30;53.70
21393;DHT22;10857;52.228;21.026;2024-03-08T00:59:42;3.30;99.90
21393;DHT22;10857;52.228;21.026;2024-03-08T01:02:10;3.40;99.90
21393;DHT22;10857;52.228;21.026;2024-03-08T01:04:37;3.40;99.90
21393;DHT22;10857;52.228;21.026;2024-03-08T01:07:04;3.20;57.60
21393;DHT22;10857;52.228;21.026;2024-03-08T01:09:32;3.10;99.90
21393;DHT22;10857;52.228;21.026;2024-03-08T01:11:59;3.00;99.90
21393;DHT22;10857;52.228;21.026;2024-03-08T01:14:28;2.90;99.90
21393;DHT22;10857;52.228;21.026;2024-03-08T01:16:58;2.90;29.70
21393;DHT22;10857;52.228;21.026;2024-03-08T01:19:26;2.90;31.20
21393;DHT22;10857;52.228;21.026;2024-03-08T01:21:53;2.80;32.00
21393;DHT22;10857;52.228;21.026;2024-03-08T01:24:23;2.60;39.00
21393;DHT22;10857;52.228;21.026;2024-03-08T01:26:50;2.60;48.70
21393;DHT22;10857;52.228;21.026;2024-03-08T01:29:17;2.60;56.70
21393;DHT22;10857;52.228;21.026;2024-03-08T01:31:44;2.50;56.10
21393;DHT22;10857;52.228;21.026;2024-03-08T01:34:11;2.40;99.90
21393;DHT22;10857;52.228;21.026;2024-03-08T01:36:38;2.40;99.90
21393;DHT22;10857;52.228;21.026;2024-03-08T01:39:05;2.40;30.50
21393;DHT22;10857;52.228;21.026;2024-03-08T01:41:35;2.40;33.90
21393;DHT22;10857;52.228;21.026;2024-03-08T01:44:03;2.50;33.30
21393;DHT22;10857;52.228;21.026;2024-03-08T01:46:31;2.60;99.90
21393;DHT22;10857;52.228;21.026;2024-03-08T01:48:58;2.70;99.90
21393;DHT22;10857;52.228;21.026;2024-03-08T01:51:28;2.70;58.00
21393;DHT22;10857;52.228;21.026;2024-03-08T01:53:56;2.80;52.70
21393;DHT22;10857;52.228;21.026;2024-03-08T01:56:25;2.90;53.40
21393;DHT22;10857;52.228;21.026;2024-03-08T01:58:52;2.90;44.30
21393;DHT22;10857;52.228;21.026;2024-03-08T02:01:19;2.80;39.70
21393;DHT22;10857;52.228;21.026;2024-03-08T02:03:46;2.70;40.10
21393;DHT22;10857;52.228;21.026;2024-03-08T02:06:14;2.60;43.00
21393;DHT22;10857;52.228;21.026;2024-03-08T02:08:45;2.70;51.60
21393;DHT22;10857;52.228;21.026;2024-03-08T02:11:14;2.80;48.30
21393;DHT22;10857;52.228;21.026;2024-03-08T02:13:41;2.80;45.10
21393;DHT22;10857;52.228;21.026;2024-03-08T02:16:09;2.70;43.10
21393;DHT22;10857;52.228;21.026;2024-03-08T02:18:36;2.70;47.10
21393;DHT22;10857;52.228;21.026;2024-03-08T02:21:05;2.80;48.20
21393;DHT22;10857;52.228;21.026;2024-03-08T02:23:33;2.90;43.70
21393;DHT22;10857;52.228;21.026;2024-03-08T02:26:01;3.00;38.80
21393;DHT22;10857;52.228;21.026;2024-03-08T02:28:28;3.00;34.40
21393;DHT22;10857;52.228;21.026;2024-03-08T02:30:56;3.00;30.60
21393;DHT22;10857;52.228;21.026;2024-03-08T02:33:25;3.00;99.90
21393;DHT22;10857;52.228;21.026;2024-03-08T02:35:53;3.10;99.90
21393;DHT22;10857;52.228;21.026;2024-03-08T02:38:22;3.00;99.90
21393;DHT22;10857;52.228;21.026;2024-03-08T02:40:51;3.00;99.90
21393;DHT22;10857;52.228;21.026;2024-03-08T02:43:19;3.00;99.90
21393;DHT22;10857;52.228;21.026;2024-03-08T02:45:46;3.00;99.90
21393;DHT22;10857;52.228;21.026;2024-03-08T02:48:14;2.90;99.90
21393;DHT22;10857;52.228;21.026;2024-03-08T02:50:43;2.90;99.90
21393;DHT22;10857;52.228;21.026;2024-03-08T02:53:13;2.70;99.90
21393;DHT22;10857;52.228;21.026;2024-03-08T02:55:41;2.50;99.90
21393;DHT22;10857;52.228;21.026;2024-03-08T02:58:09;2.40;53.20
21393;DHT22;10857;52.228;21.026;2024-03-08T03:00:39;2.50;58.50
21393;DHT22;10857;52.228;21.026;2024-03-08T03:03:07;2.60;54.80
21393;DHT22;10857;52.228;21.026;2024-03-08T03:05:35;2.60;52.50
21393;DHT22;10857;52.228;21.026;2024-03-08T03:08:02;2.60;52.30
21393;DHT22;10857;52.228;21.026;2024-03-08T03:10:36;2.70;54.10
21393;DHT22;10857;52.228;21.026;2024-03-08T03:13:03;2.60;50.30
21393;DHT22;10857;52.228;21.026;2024-03-08T03:15:35;2.60;51.30
21393;DHT22;10857;52.228;21.026;2024-03-08T03:18:04;2.60;48.60
21393;DHT22;10857;52.228;21.026;2024-03-08T03:20:35;2.60;52.40
21393;DHT22;10857;52.228;21.026;2024-03-08T03:23:09;2.60;55.70
21393;DHT22;10857;52.228;21.026;2024-03-08T03:25:36;2.50;54.60
21393;DHT22;10857;52.228;21.026;2024-03-08T03:28:05;2.40;59.10
21393;DHT22;10857;52.228;21.026;2024-03-08T03:30:34;2.40;99.90
21393;DHT22;10857;52.228;21.026;2024-03-08T03:33:02;2.50;99.90
21393;DHT22;10857;52.228;21.026;2024-03-08T03:35:35;2.50;99.90
21393;DHT22;10857;52.228;21.026;2024-03-08T03:38:04;2.50;30.80
21393;DHT22;10857;52.228;21.026;2024-03-08T03:40:39;2.40;31.60
21393;DHT22;10857;52.228;21.026;2024-03-08T03:43:08;2.50;33.50
21393;DHT22;10857;52.228;21.026;2024-03-08T03:45:39;2.50;34.20
21393;DHT22;10857;52.228;21.026;2024-03-08T03:48:08;2.50;37.30
21393;DHT22;10857;52.228;21.026;2024-03-08T03:50:39;2.50;42.00
21393;DHT22;10857;52.228;21.026;2024-03-08T03:53:08;2.50;43.60
21393;DHT22;10857;52.228;21.026;2024-03-08T03:55:36;2.40;50.70
21393;DHT22;10857;52.228;21.026;2024-03-08T03:58:07;2.40;59.90
21393;DHT22;10857;52.228;21.026;2024-03-08T04:00:34;2.40;57.30
21393;DHT22;10857;52.228;21.026;2024-03-08T04:03:01;2.40;55.20
21393;DHT22;10857;52.228;21.026;2024-03-08T04:05:30;2.30;99.90
21393;DHT22;10857;52.228;21.026;2024-03-08T04:07:58;2.40;99.90
21393;DHT22;10857;52.228;21.026;2024-03-08T04:10:25;2.30;32.30
21393;DHT22;10857;52.228;21.026;2024-03-08T04:12:55;2.30;36.70
21393;DHT22;10857;52.228;21.026;2024-03-08T04:15:23;2.30;47.10
21393;DHT22;10857;52.228;21.026;2024-03-08T04:17:50;2.30;54.00
21393;DHT22;10857;52.228;21.026;2024-03-08T04:20:17;2.20;59.50
21393;DHT22;10857;52.228;21.026;2024-03-08T04:22:44;2.20;99.90
21393;DHT22;10857;52.228;21.026;2024-03-08T04:25:16;2.20;99.90
21393;DHT22;10857;52.228;21.026;2024-03-08T04:27:44;2.20;35.40
21393;DHT22;10857;52.228;21.026;2024-03-08T04:30:11;2.20;39.00
21393;DHT22;10857;52.228;21.026;2024-03-08T04:32:39;2.20;41.90
21393;DHT22;10857;52.228;21.026;2024-03-08T04:35:08;2.30;48.90
21393;DHT22;10857;52.228;21.026;2024-03-08T04:37:35;2.30;53.40
21393;DHT22;10857;52.228;21.026;2024-03-08T04:40:03;2.30;99.90
21393;DHT22;10857;52.228;21.026;2024-03-08T04:42:30;2.40;55.20
21393;DHT22;10857;52.228;21.026;2024-03-08T04:44:59;2.40;53.90
21393;DHT22;10857;52.228;21.026;2024-03-08T04:47:27;2.50;57.10
21393;DHT22;10857;52.228;21.026;2024-03-08T04:49:54;2.50;55.00
21393;DHT22;10857;52.228;21.026;2024-03-08T04:52:23;2.50;51.40
21393;DHT22;10857;52.228;21.026;2024-03-08T04:54:50;2.50;48.00
21393;DHT22;10857;52.228;21.026;2024-03-08T04:57:17;2.50;44.40
21393;DHT22;10857;52.228;21.026;2024-03-08T04:59:46;2.40;46.30
21393;DHT22;10857;52.228;21.026;2024-03-08T05:02:13;2.40;54.80
21393;DHT22;10857;52.228;21.026;2024-03-08T05:04:40;2.40;58.40
21393;DHT22;10857;52.228;21.026;2024-03-08T05:07:09;2.40;99.90
21393;DHT22;10857;52.228;21.026;2024-03-08T05:09:36;2.40;99.90
21393;DHT22;10857;52.228;21.026;2024-03-08T05:12:05;2.40;31.90
21393;DHT22;10857;52.228;21.026;2024-03-08T05:14:32;2.40;36.80
21393;DHT22;10857;52.228;21.026;2024-03-08T05:16:59;2.40;42.90
21393;DHT22;10857;52.228;21.026;2024-03-08T05:19:27;2.40;51.50
21393;DHT22;10857;52.228;21.026;2024-03-08T05:22:00;2.40;58.50
21393;DHT22;10857;52.228;21.026;2024-03-08T05:24:28;2.50;97.30
21393;DHT22;10857;52.228;21.026;2024-03-08T05:26:57;2.50;67.80
21393;DHT22;10857;52.228;21.026;2024-03-08T05:29:24;2.50;99.90
21393;DHT22;10857;52.228;21.026;2024-03-08T05:31:52;2.60;73.20
21393;DHT22;10857;52.228;21.026;2024-03-08T05:34:19;2.60;59.10
21393;DHT22;10857;52.228;21.026;2024-03-08T05:36:48;2.60;56.10
21393;DHT22;10857;52.228;21.026;2024-03-08T05:39:19;2.60;57.00
21393;DHT22;10857;52.228;21.026;2024-03-08T05:41:47;2.70;54.60
21393;DHT22;10857;52.228;21.026;2024-03-08T05:44:15;2.70;54.40
21393;DHT22;10857;52.228;21.026;2024-03-08T05:46:44;2.70;57.80
21393;DHT22;10857;52.228;21.026;2024-03-08T05:49:13;2.70;57.90
21393;DHT22;10857;52.228;21.026;2024-03-08T05:51:41;2.70;95.90
21393;DHT22;10857;52.228;21.026;2024-03-08T05:54:10;2.80;59.60
21393;DHT22;10857;52.228;21.026;2024-03-08T05:56:39;2.80;99.90
21393;DHT22;10857;52.228;21.026;2024-03-08T05:59:09;2.90;56.90
21393;DHT22;10857;52.228;21.026;2024-03-08T06:01:37;2.90;50.60
21393;DHT22;10857;52.228;21.026;2024-03-08T06:04:04;2.90;53.10
21393;DHT22;10857;52.228;21.026;2024-03-08T06:06:31;2.90;54.70
21393;DHT22;10857;52.228;21.026;2024-03-08T06:08:59;3.00;55.60
21393;DHT22;10857;52.228;21.026;2024-03-08T06:11:26;3.00;48.30
21393;DHT22;10857;52.228;21.026;2024-03-08T06:13:58;3.10;47.60
21393;DHT22;10857;52.228;21.026;2024-03-08T06:16:27;3.10;44.60
21393;DHT22;10857;52.228;21.026;2024-03-08T06:18:57;3.20;43.30
21393;DHT22;10857;52.228;21.026;2024-03-08T06:21:25;3.20;38.60
21393;DHT22;10857;52.228;21.026;2024-03-08T06:23:55;3.20;34.40
21393;DHT22;10857;52.228;21.026;2024-03-08T06:26:25;3.30;99.90
21393;DHT22;10857;52.228;21.026;2024-03-08T06:28:56;3.40;99.90
21393;DHT22;10857;52.228;21.026;2024-03-08T06:31:26;3.40;57.90
21393;DHT22;10857;52.228;21.026;2024-03-08T06:33:53;3.50;55.80
21393;DHT22;10857;52.228;21.026;2024-03-08T06:36:24;3.50;39.80
21393;DHT22;10857;52.228;21.026;2024-03-08T06:38:52;3.50;39.90
21393;DHT22;10857;52.228;21.026;2024-03-08T06:41:19;3.50;34.20
21393;DHT22;10857;52.228;21.026;2024-03-08T06:43:47;3.60;85.30
21393;DHT22;10857;52.228;21.026;2024-03-08T06:46:16;3.70;50.30
21393;DHT22;10857;52.228;21.026;2024-03-08T06:48:43;3.70;48.20
21393;DHT22;10857;52.228;21.026;2024-03-08T06:51:10;3.80;47.40
21393;DHT22;10857;52.228;21.026;2024-03-08T06:53:38;3.80;35.90
21393;DHT22;10857;52.228;21.026;2024-03-08T06:56:06;3.90;99.90
21393;DHT22;10857;52.228;21.026;2024-03-08T06:58:35;4.00;99.90
21393;DHT22;10857;52.228;21.026;2024-03-08T07:01:02;4.00;48.90
21393;DHT22;10857;52.228;21.026;2024-03-08T07:03:31;4.10;47.60
21393;DHT22;10857;52.228;21.026;2024-03-08T07:06:00;4.10;33.00
21393;DHT22;10857;52.228;21.026;2024-03-08T07:08:30;4.20;99.90
21393;DHT22;10857;52.228;21.026;2024-03-08T07:10:57;4.20;57.30
21393;DHT22;10857;52.228;21.026;2024-03-08T07:13:26;4.30;99.90
21393;DHT22;10857;52.228;21.026;2024-03-08T07:15:55;4.40;46.00
21393;DHT22;10857;52.228;21.026;2024-03-08T07:18:22;4.40;99.90
21393;DHT22;10857;52.228;21.026;2024-03-08T07:20:50;4.40;99.90
21393;DHT22;10857;52.228;21.026;2024-03-08T07:23:17;4.50;58.50
21393;DHT22;10857;52.228;21.026;2024-03-08T07:26:03;4.50;45.10
21393;DHT22;10857;52.228;21.026;2024-03-08T07:28:30;4.70;40.40
21393;DHT22;10857;52.228;21.026;2024-03-08T07:30:58;4.80;31.30
21393;DHT22;10857;52.228;21.026;2024-03-08T07:33:40;4.90;99.90
21393;DHT22;10857;52.228;21.026;2024-03-08T07:36:07;4.90;59.40
21393;DHT22;10857;52.228;21.026;2024-03-08T07:38:35;4.90;56.90
21393;DHT22;10857;52.228;21.026;2024-03-08T07:41:02;5.10;56.50
21393;DHT22;10857;52.228;21.026;2024-03-08T07:43:31;5.00;50.80
21393;DHT22;10857;52.228;21.026;2024-03-08T07:45:59;5.00;50.00
21393;DHT22;10857;52.228;21.026;2024-03-08T07:48:27;5.00;45.50
21393;DHT22;10857;52.228;21.026;2024-03-08T07:50:54;5.10;44.80
21393;DHT22;10857;52.228;21.026;2024-03-08T07:53:22;5.10;40.80
21393;DHT22;10857;52.228;21.026;2024-03-08T07:55:51;5.20;38.80
21393;DHT22;10857;52.228;21.026;2024-03-08T07:58:19;5.20;35.10
21393;DHT22;10857;52.228;21.026;2024-03-08T08:00:47;5.20;36.30
21393;DHT22;10857;52.228;21.026;2024-03-08T08:03:14;5.40;35.10
21393;DHT22;10857;52.228;21.026;2024-03-08T08:05:41;5.50;31.90
21393;DHT22;10857;52.228;21.026;2024-03-08T08:08:08;5.60;30.80
21393;DHT22;10857;52.228;21.026;2024-03-08T08:10:38;5.70;99.90
21393;DHT22;10857;52.228;21.026;2024-03-08T08:13:05;5.80;99.90
21393;DHT22;10857;52.228;21.026;2024-03-08T08:15:32;5.90;99.90
21393;DHT22;10857;52.228;21.026;2024-03-08T08:18:01;5.90;95.40
21393;DHT22;10857;52.228;21.026;2024-03-08T08:20:33;6.00;59.40
21393;DHT22;10857;52.228;21.026;2024-03-08T08:23:00;6.00;56.30
21393;DHT22;10857;52.228;21.026;2024-03-08T08:25:27;6.10;55.40
21393;DHT22;10857;52.228;21.026;2024-03-08T08:27:55;6.20;55.10
21393;DHT22;10857;52.228;21.026;2024-03-08T08:30:22;6.20;52.80
21393;DHT22;10857;52.228;21.026;2024-03-08T08:32:49;6.30;51.30
21393;DHT22;10857;52.228;21.026;2024-03-08T08:35:16;6.30;50.40
21393;DHT22;10857;52.228;21.026;2024-03-08T08:37:45;6.30;47.90
21393;DHT22;10857;52.228;21.026;2024-03-08T08:40:12;6.30;46.90
21393;DHT22;10857;52.228;21.026;2024-03-08T08:42:45;6.30;45.30
21393;DHT22;10857;52.228;21.026;2024-03-08T08:45:16;6.40;44.90
21393;DHT22;10857;52.228;21.026;2024-03-08T08:47:51;6.50;43.10
21393;DHT22;10857;52.228;21.026;2024-03-08T08:50:18;6.60;42.60
21393;DHT22;10857;52.228;21.026;2024-03-08T08:52:55;6.80;42.40
21393;DHT22;10857;52.228;21.026;2024-03-08T08:55:23;6.90;41.80
21393;DHT22;10857;52.228;21.026;2024-03-08T08:57:53;7.00;41.20
21393;DHT22;10857;52.228;21.026;2024-03-08T09:00:21;7.00;40.10
21393;DHT22;10857;52.228;21.026;2024-03-08T09:02:51;7.00;39.80
21393;DHT22;10857;52.228;21.026;2024-03-08T09:05:18;6.90;39.60
21393;DHT22;10857;52.228;21.026;2024-03-08T09:07:45;7.00;39.60
21393;DHT22;10857;52.228;21.026;2024-03-08T09:10:12;7.00;39.70
21393;DHT22;10857;52.228;21.026;2024-03-08T09:12:44;7.20;39.40
21393;DHT22;10857;52.228;21.026;2024-03-08T09:15:11;7.10;38.50
21393;DHT22;10857;52.228;21.026;2024-03-08T09:17:40;7.30;37.80
21393;DHT22;10857;52.228;21.026;2024-03-08T09:20:09;7.40;37.60
21393;DHT22;10857;52.228;21.026;2024-03-08T09:22:37;7.50;37.10
21393;DHT22;10857;52.228;21.026;2024-03-08T09:25:05;7.50;36.40
21393;DHT22;10857;52.228;21.026;2024-03-08T09:27:32;7.70;36.00
21393;DHT22;10857;52.228;21.026;2024-03-08T09:30:04;7.70;35.50
21393;DHT22;10857;52.228;21.026;2024-03-08T09:32:34;7.80;35.20
21393;DHT22;10857;52.228;21.026;2024-03-08T09:35:02;7.70;34.40
21393;DHT22;10857;52.228;21.026;2024-03-08T09:37:29;7.60;34.20
21393;DHT22;10857;52.228;21.026;2024-03-08T09:39:57;7.70;34.40
21393;DHT22;10857;52.228;21.026;2024-03-08T09:42:26;7.70;34.10
21393;DHT22;10857;52.228;21.026;2024-03-08T09:44:53;7.80;34.80
21393;DHT22;10857;52.228;21.026;2024-03-08T09:47:22;7.90;33.80
21393;DHT22;10857;52.228;21.026;2024-03-08T09:49:52;8.00;33.30
21393;DHT22;10857;52.228;21.026;2024-03-08T09:52:20;8.00;33.10
21393;DHT22;10857;52.228;21.026;2024-03-08T09:54:48;8.00;32.60
21393;DHT22;10857;52.228;21.026;2024-03-08T09:57:16;8.00;32.40
21393;DHT22;10857;52.228;21.026;2024-03-08T09:59:47;8.10;32.40
21393;DHT22;10857;52.228;21.026;2024-03-08T10:02:15;8.20;31.80
21393;DHT22;10857;52.228;21.026;2024-03-08T10:04:43;8.20;31.90
21393;DHT22;10857;52.228;21.026;2024-03-08T10:07:13;8.20;31.40
21393;DHT22;10857;52.228;21.026;2024-03-08T10:09:40;8.30;31.10
21393;DHT22;10857;52.228;21.026;2024-03-08T10:12:18;8.40;31.50
21393;DHT22;10857;52.228;21.026;2024-03-08T10:14:46;8.30;30.80
21393;DHT22;10857;52.228;21.026;2024-03-08T10:17:13;7.60;30.60
21393;DHT22;10857;52.228;21.026;2024-03-08T10:19:49;7.30;30.40
21393;DHT22;10857;52.228;21.026;2024-03-08T10:22:18;7.10;30.50
21393;DHT22;10857;52.228;21.026;2024-03-08T10:24:47;7.00;30.50
21393;DHT22;10857;52.228;21.026;2024-03-08T10:27:16;6.80;30.60
21393;DHT22;10857;52.228;21.026;2024-03-08T10:29:47;6.90;30.60
21393;DHT22;10857;52.228;21.026;2024-03-08T10:32:14;7.10;31.10
21393;DHT22;10857;52.228;21.026;2024-03-08T10:34:41;7.20;30.80
21393;DHT22;10857;52.228;21.026;2024-03-08T10:37:15;7.10;30.50
21393;DHT22;10857;52.228;21.026;2024-03-08T10:40:03;7.30;30.60
21393;DHT22;10857;52.228;21.026;2024-03-08T10:42:41;7.20;30.10
21393;DHT22;10857;52.228;21.026;2024-03-08T10:48:17;7.30;30.00
21393;DHT22;10857;52.228;21.026;2024-03-08T10:50:47;7.30;29.90
21393;DHT22;10857;52.228;21.026;2024-03-08T10:53:18;7.10;29.80
21393;DHT22;10857;52.228;21.026;2024-03-08T10:55:46;7.10;29.90
21393;DHT22;10857;52.228;21.026;2024-03-08T10:58:14;7.20;29.80
21393;DHT22;10857;52.228;21.026;2024-03-08T11:00:42;7.50;29.90
21393;DHT22;10857;52.228;21.026;2024-03-08T11:12:19;8.70;29.90
21393;DHT22;10857;52.228;21.026;2024-03-08T11:14:50;8.80;29.80
21393;DHT22;10857;52.228;21.026;2024-03-08T11:17:47;9.00;29.40
21393;DHT22;10857;52.228;21.026;2024-03-08T11:20:19;9.10;29.20
21393;DHT22;10857;52.228;21.026;2024-03-08T11:22:54;8.90;29.00
21393;DHT22;10857;52.228;21.026;2024-03-08T11:25:34;8.90;29.00
21393;DHT22;10857;52.228;21.026;2024-03-08T11:28:19;9.00;28.80
21393;DHT22;10857;52.228;21.026;2024-03-08T11:33:40;8.70;99.90
21393;DHT22;10857;52.228;21.026;2024-03-08T11:36:11;8.90;99.90
21393;DHT22;10857;52.228;21.026;2024-03-08T11:38:44;9.00;99.90
21393;DHT22;10857;52.228;21.026;2024-03-08T11:41:11;8.90;28.90
21393;DHT22;10857;52.228;21.026;2024-03-08T11:43:45;8.90;99.90
21393;DHT22;10857;52.228;21.026;2024-03-08T11:46:14;8.90;99.90
21393;DHT22;10857;52.228;21.026;2024-03-08T11:48:43;9.20;99.90
21393;DHT22;10857;52.228;21.026;2024-03-08T11:51:11;9.20;99.90
21393;DHT22;10857;52.228;21.026;2024-03-08T11:53:39;9.20;99.90
21393;DHT22;10857;52.228;21.026;2024-03-08T11:56:11;9.20;99.90
21393;DHT22;10857;52.228;21.026;2024-03-08T11:58:39;9.40;99.90
21393;DHT22;10857;52.228;21.026;2024-03-08T12:01:08;9.60;99.90
21393;DHT22;10857;52.228;21.026;2024-03-08T12:03:40;9.80;99.90
21393;DHT22;10857;52.228;21.026;2024-03-08T12:06:10;9.80;99.90
21393;DHT22;10857;52.228;21.026;2024-03-08T12:08:37;9.80;99.90
21393;DHT22;10857;52.228;21.026;2024-03-08T12:11:05;9.90;99.90
21393;DHT22;10857;52.228;21.026;2024-03-08T12:13:34;10.00;99.90
21393;DHT22;10857;52.228;21.026;2024-03-08T12:16:04;10.00;99.90
21393;DHT22;10857;52.228;21.026;2024-03-08T12:18:36;10.00;99.90
21393;DHT22;10857;52.228;21.026;2024-03-08T12:21:10;10.00;99.90
21393;DHT22;10857;52.228;21.026;2024-03-08T12:23:38;10.00;99.90
21393;DHT22;10857;52.228;21.026;2024-03-08T12:26:15;10.00;99.90
21393;DHT22;10857;52.228;21.026;2024-03-08T12:28:44;9.80;99.90
21393;DHT22;10857;52.228;21.026;2024-03-08T12:31:16;9.90;99.90
21393;DHT22;10857;52.228;21.026;2024-03-08T12:33:54;9.90;99.90
21393;DHT22;10857;52.228;21.026;2024-03-08T12:36:24;9.60;99.90
21393;DHT22;10857;52.228;21.026;2024-03-08T12:38:53;9.00;99.90
21393;DHT22;10857;52.228;21.026;2024-03-08T12:41:21;9.00;99.90
21393;DHT22;10857;52.228;21.026;2024-03-08T12:43:48;9.20;99.90
21393;DHT22;10857;52.228;21.026;2024-03-08T12:46:16;9.40;99.90
21393;DHT22;10857;52.228;21.026;2024-03-08T12:48:43;9.50;99.90
21393;DHT22;10857;52.228;21.026;2024-03-08T12:51:14;9.70;99.90
21393;DHT22;10857;52.228;21.026;2024-03-08T12:53:43;9.90;99.90
21393;DHT22;10857;52.228;21.026;2024-03-08T12:56:14;9.80;99.90
21393;DHT22;10857;52.228;21.026;2024-03-08T12:58:44;9.80;99.90
21393;DHT22;10857;52.228;21.026;2024-03-08T13:01:11;9.80;99.90
21393;DHT22;10857;52.228;21.026;2024-03-08T13:03:39;9.90;99.90
21393;DHT22;10857;52.228;21.026;2024-03-08T13:06:06;10.00;99.90
21393;DHT22;10857;52.228;21.026;2024-03-08T13:08:36;10.00;99.90
21393;DHT22;10857;52.228;21.026;2024-03-08T13:11:09;10.10;99.90
21393;DHT22;10857;52.228;21.026;2024-03-08T13:13:41;10.10;99.90
21393;DHT22;10857;52.228;21.026;2024-03-08T13:16:08;10.00;99.90
21393;DHT22;10857;52.228;21.026;2024-03-08T13:18:36;10.00;99.90
21393;DHT22;10857;52.228;21.026;2024-03-08T13:21:04;9.90;99.90
21393;DHT22;10857;52.228;21.026;2024-03-08T13:23:36;9.70;99.90
21393;DHT22;10857;52.228;21.026;2024-03-08T13:26:07;9.60;99.90
21393;DHT22;10857;52.228;21.026;2024-03-08T13:28:35;9.90;99.90
21393;DHT22;10857;52.228;21.026;2024-03-08T13:31:04;9.90;99.90
21393;DHT22;10857;52.228;21.026;2024-03-08T13:33:40;10.00;99.90
21393;DHT22;10857;52.228;21.026;2024-03-08T13:36:09;10.10;99.90
21393;DHT22;10857;52.228;21.026;2024-03-08T13:38:46;10.10;99.90
21393;DHT22;10857;52.228;21.026;2024-03-08T13:41:15;10.20;99.90
21393;DHT22;10857;52.228;21.026;2024-03-08T13:43:47;10.20;99.90
21393;DHT22;10857;52.228;21.026;2024-03-08T13:46:17;10.20;99.90
21393;DHT22;10857;52.228;21.026;2024-03-08T13:48:44;10.20;99.90
21393;DHT22;10857;52.228;21.026;2024-03-08T13:51:11;10.20;99.90
21393;DHT22;10857;52.228;21.026;2024-03-08T13:53:42;10.20;99.90
21393;DHT22;10857;52.228;21.026;2024-03-08T13:56:09;10.20;99.90
21393;DHT22;10857;52.228;21.026;2024-03-08T13:58:37;10.10;99.90
21393;DHT22;10857;52.228;21.026;2024-03-08T14:01:07;10.10;99.90
21393;DHT22;10857;52.228;21.026;2024-03-08T14:03:39;10.10;99.90
21393;DHT22;10857;52.228;21.026;2024-03-08T14:06:09;10.20;99.90
21393;DHT22;10857;52.228;21.026;2024-03-08T14:08:47;10.20;99.90
21393;DHT22;10857;52.228;21.026;2024-03-08T14:11:14;10.30;99.90
21393;DHT22;10857;52.228;21.026;2024-03-08T14:13:42;10.40;99.90
21393;DHT22;10857;52.228;21.026;2024-03-08T14:16:12;10.20;99.90
21393;DHT22;10857;52.228;21.026;2024-03-08T14:18:39;10.20;99.90
21393;DHT22;10857;52.228;21.026;2024-03-08T14:21:08;10.20;99.90
21393;DHT22;10857;52.228;21.026;2024-03-08T14:23:35;10.00;99.90
21393;DHT22;10857;52.228;21.026;2024-03-08T14:26:04;9.80;99.90
21393;DHT22;10857;52.228;21.026;2024-03-08T14:28:34;9.60;99.90
21393;DHT22;10857;52.228;21.026;2024-03-08T14:31:01;9.60;99.90
21393;DHT22;10857;52.228;21.026;2024-03-08T14:33:33;9.60;99.90
21393;DHT22;10857;52.228;21.026;2024-03-08T14:36:00;9.60;99.90
21393;DHT22;10857;52.228;21.026;2024-03-08T14:38:28;9.70;99.90
21393;DHT22;10857;52.228;21.026;2024-03-08T14:40:55;9.80;99.90
21393;DHT22;10857;52.228;21.026;2024-03-08T14:43:23;9.80;99.90
21393;DHT22;10857;52.228;21.026;2024-03-08T14:45:51;9.80;99.90
21393;DHT22;10857;52.228;21.026;2024-03-08T14:48:19;9.70;99.90
21393;DHT22;10857;52.228;21.026;2024-03-08T14:50:47;9.40;99.90
21393;DHT22;10857;52.228;21.026;2024-03-08T14:53:14;9.10;99.90
21393;DHT22;10857;52.228;21.026;2024-03-08T14:55:43;9.10;99.90
21393;DHT22;10857;52.228;21.026;2024-03-08T14:58:14;9.10;99.90
21393;DHT22;10857;52.228;21.026;2024-03-08T15:00:42;9.20;99.90
21393;DHT22;10857;52.228;21.026;2024-03-08T15:03:11;9.20;99.90
21393;DHT22;10857;52.228;21.026;2024-03-08T15:05:44;9.40;99.90
21393;DHT22;10857;52.228;21.026;2024-03-08T15:08:15;9.50;99.90
21393;DHT22;10857;52.228;21.026;2024-03-08T15:10:47;9.60;99.90
21393;DHT22;10857;52.228;21.026;2024-03-08T15:13:22;9.50;99.90
21393;DHT22;10857;52.228;21.026;2024-03-08T15:15:50;9.60;99.90
21393;DHT22;10857;52.228;21.026;2024-03-08T15:18:25;9.60;99.90
21393;DHT22;10857;52.228;21.026;2024-03-08T15:20:53;9.60;99.90
21393;DHT22;10857;52.228;21.026;2024-03-08T15:23:20;9.60;99.90
21393;DHT22;10857;52.228;21.026;2024-03-08T15:25:48;9.60;99.90
21393;DHT22;10857;52.228;21.026;2024-03-08T15:28:18;9.50;99.90
21393;DHT22;10857;52.228;21.026;2024-03-08T15:30:47;9.60;99.90
21393;DHT22;10857;52.228;21.026;2024-03-08T15:33:20;9.60;99.90
21393;DHT22;10857;52.228;21.026;2024-03-08T15:35:52;9.50;99.90
21393;DHT22;10857;52.228;21.026;2024-03-08T15:38:26;9.50;99.90
21393;DHT22;10857;52.228;21.026;2024-03-08T15:40:56;9.40;99.90
21393;DHT22;10857;52.228;21.026;2024-03-08T15:43:23;9.40;99.90
21393;DHT22;10857;52.228;21.026;2024-03-08T15:45:52;9.40;99.90
21393;DHT22;10857;52.228;21.026;2024-03-08T15:48:22;9.40;99.90
21393;DHT22;10857;52.228;21.026;2024-03-08T15:50:50;9.40;99.90
21393;DHT22;10857;52.228;21.026;2024-03-08T15:53:17;9.40;99.90
21393;DHT22;10857;52.228;21.026;2024-03-08T15:55:45;9.40;99.90